Terminal Aerodrome Forecast
Issued by NWS Omaha/Valley, NE

Home | Current Version | Previous Version | Text Only | Print | Product List | Glossary On
Versions: 1 2 3 4 5 6 7 8 9 10 11 12 13 14 15 16
000
FTUS43 KOAX 231738
TAFOFK
TAF
KOFK 231738Z 2318/2418 16026G34KT P6SM BKN250
      TEMPO 2323/2403 VRB30G40KT 3SM TSRA BKN030CB
     FM240300 33015G22KT 4SM -SHRA OVC025
     FM240700 32015KT P6SM OVC035
     FM241200 32015G23KT P6SM OVC100=

USA.gov is the U.S. government's official web portal to all federal, state and local government web resources and services.